sensor_id;sensor_type;location;lat;lon;timestamp;pressure;altitude;pressure_sealevel;temperature;humidity
48527;BME280;34317;51.660;5.824;2022-12-20T00:01:23;101337.78;;;13.32;58.46
48527;BME280;34317;51.660;5.824;2022-12-20T00:03:53;101337.47;;;13.38;58.23
48527;BME280;34317;51.660;5.824;2022-12-20T00:06:21;101330.16;;;13.43;58.03
48527;BME280;34317;51.660;5.824;2022-12-20T00:08:53;101315.75;;;13.48;57.91
48527;BME280;34317;51.660;5.824;2022-12-20T00:11:22;101319.03;;;13.53;58.24
48527;BME280;34317;51.660;5.824;2022-12-20T00:13:49;101331.25;;;13.57;58.05
48527;BME280;34317;51.660;5.824;2022-12-20T00:16:19;101331.13;;;13.60;57.92
48527;BME280;34317;51.660;5.824;2022-12-20T00:18:50;101332.69;;;13.64;57.82
48527;BME280;34317;51.660;5.824;2022-12-20T00:21:18;101327.19;;;13.67;57.76
48527;BME280;34317;51.660;5.824;2022-12-20T00:23:46;101334.09;;;13.71;57.74
48527;BME280;34317;51.660;5.824;2022-12-20T00:26:15;101335.66;;;13.75;57.75
48527;BME280;34317;51.660;5.824;2022-12-20T00:28:44;101335.50;;;13.78;57.54
48527;BME280;34317;51.660;5.824;2022-12-20T00:31:13;101326.44;;;13.82;57.44
48527;BME280;34317;51.660;5.824;2022-12-20T00:33:40;101317.34;;;13.87;57.45
48527;BME280;34317;51.660;5.824;2022-12-20T00:36:08;101316.25;;;13.91;57.41
48527;BME280;34317;51.660;5.824;2022-12-20T00:38:35;101306.22;;;13.96;57.39
48527;BME280;34317;51.660;5.824;2022-12-20T00:43:30;101311.03;;;14.05;57.10
48527;BME280;34317;51.660;5.824;2022-12-20T00:45:58;101317.06;;;14.09;57.13
48527;BME280;34317;51.660;5.824;2022-12-20T00:48:25;101319.50;;;14.13;57.08
48527;BME280;34317;51.660;5.824;2022-12-20T00:51:00;101309.56;;;14.17;56.86
48527;BME280;34317;51.660;5.824;2022-12-20T00:53:28;101306.72;;;14.20;57.01
48527;BME280;34317;51.660;5.824;2022-12-20T00:55:56;101295.84;;;14.25;56.95
48527;BME280;34317;51.660;5.824;2022-12-20T00:58:24;101300.97;;;14.28;56.85
48527;BME280;34317;51.660;5.824;2022-12-20T01:00:51;101290.16;;;14.31;56.61
48527;BME280;34317;51.660;5.824;2022-12-20T01:03:25;101288.97;;;14.36;56.64
48527;BME280;34317;51.660;5.824;2022-12-20T01:05:55;101284.34;;;14.40;56.53
48527;BME280;34317;51.660;5.824;2022-12-20T01:08:24;101291.22;;;14.44;56.25
48527;BME280;34317;51.660;5.824;2022-12-20T01:13:34;101306.03;;;14.50;56.39
48527;BME280;34317;51.660;5.824;2022-12-20T01:16:06;101293.47;;;14.52;56.21
48527;BME280;34317;51.660;5.824;2022-12-20T01:18:34;101292.47;;;14.54;56.23
48527;BME280;34317;51.660;5.824;2022-12-20T01:21:03;101297.63;;;14.57;56.06
48527;BME280;34317;51.660;5.824;2022-12-20T01:23:31;101299.28;;;14.60;56.07
48527;BME280;34317;51.660;5.824;2022-12-20T01:26:00;101290.25;;;14.63;56.10
48527;BME280;34317;51.660;5.824;2022-12-20T01:28:27;101303.44;;;14.66;56.18
48527;BME280;34317;51.660;5.824;2022-12-20T01:30:54;101316.56;;;14.69;56.24
48527;BME280;34317;51.660;5.824;2022-12-20T01:33:22;101323.66;;;14.70;56.25
48527;BME280;34317;51.660;5.824;2022-12-20T01:35:56;101320.00;;;14.71;56.27
48527;BME280;34317;51.660;5.824;2022-12-20T01:38:24;101314.69;;;14.71;56.30
48527;BME280;34317;51.660;5.824;2022-12-20T01:40:51;101307.66;;;14.70;56.44
48527;BME280;34317;51.660;5.824;2022-12-20T01:43:20;101284.59;;;14.69;56.37
48527;BME280;34317;51.660;5.824;2022-12-20T01:45:48;101279.25;;;14.69;56.33
48527;BME280;34317;51.660;5.824;2022-12-20T01:48:18;101284.59;;;14.69;56.72
48527;BME280;34317;51.660;5.824;2022-12-20T01:50:47;101293.53;;;14.68;56.61
48527;BME280;34317;51.660;5.824;2022-12-20T01:53:17;101307.81;;;14.67;56.83
48527;BME280;34317;51.660;5.824;2022-12-20T01:55:47;101306.19;;;14.64;56.71
48527;BME280;34317;51.660;5.824;2022-12-20T01:58:17;101318.66;;;14.64;57.04
48527;BME280;34317;51.660;5.824;2022-12-20T02:00:46;101310.81;;;14.60;57.29
48527;BME280;34317;51.660;5.824;2022-12-20T02:03:14;101292.31;;;14.57;57.42
48527;BME280;34317;51.660;5.824;2022-12-20T02:05:44;101290.72;;;14.53;57.63
48527;BME280;34317;51.660;5.824;2022-12-20T02:08:15;101295.38;;;14.50;57.81
48527;BME280;34317;51.660;5.824;2022-12-20T02:16:47;101273.06;;;14.35;58.34
48527;BME280;34317;51.660;5.824;2022-12-20T02:22:28;101256.66;;;14.27;58.51
48527;BME280;34317;51.660;5.824;2022-12-20T02:28:05;101256.28;;;14.17;58.85
48527;BME280;34317;51.660;5.824;2022-12-20T02:30:42;101250.25;;;14.13;58.92
48527;BME280;34317;51.660;5.824;2022-12-20T02:33:12;101252.13;;;14.11;59.11
48527;BME280;34317;51.660;5.824;2022-12-20T02:35:40;101254.03;;;14.09;59.30
48527;BME280;34317;51.660;5.824;2022-12-20T02:38:28;101252.38;;;14.07;59.34
48527;BME280;34317;51.660;5.824;2022-12-20T02:41:12;101233.03;;;14.03;59.43
48527;BME280;34317;51.660;5.824;2022-12-20T02:43:44;101212.75;;;14.00;59.41
48527;BME280;34317;51.660;5.824;2022-12-20T02:46:34;101217.38;;;13.97;59.55
48527;BME280;34317;51.660;5.824;2022-12-20T02:49:08;101221.00;;;13.96;59.62
48527;BME280;34317;51.660;5.824;2022-12-20T02:51:38;101218.34;;;13.96;59.67
48527;BME280;34317;51.660;5.824;2022-12-20T02:54:07;101213.94;;;13.95;59.71
48527;BME280;34317;51.660;5.824;2022-12-20T02:56:41;101204.25;;;13.94;59.91
48527;BME280;34317;51.660;5.824;2022-12-20T02:59:14;101197.97;;;13.95;59.77
48527;BME280;34317;51.660;5.824;2022-12-20T03:01:48;101206.91;;;13.94;59.72
48527;BME280;34317;51.660;5.824;2022-12-20T03:04:19;101200.63;;;13.95;59.87
48527;BME280;34317;51.660;5.824;2022-12-20T03:07:03;101194.38;;;13.96;59.88
48527;BME280;34317;51.660;5.824;2022-12-20T03:09:33;101201.41;;;13.97;59.91
48527;BME280;34317;51.660;5.824;2022-12-20T03:12:01;101201.25;;;14.00;59.82
48527;BME280;34317;51.660;5.824;2022-12-20T03:14:32;101199.38;;;14.02;59.50
48527;BME280;34317;51.660;5.824;2022-12-20T03:17:02;101197.47;;;14.04;59.78
48527;BME280;34317;51.660;5.824;2022-12-20T03:19:29;101200.91;;;14.06;59.90
48527;BME280;34317;51.660;5.824;2022-12-20T03:21:58;101202.66;;;14.07;59.72
48527;BME280;34317;51.660;5.824;2022-12-20T03:24:25;101213.31;;;14.07;59.68
48527;BME280;34317;51.660;5.824;2022-12-20T03:26:54;101215.00;;;14.08;59.80
48527;BME280;34317;51.660;5.824;2022-12-20T03:29:23;101214.84;;;14.11;59.73
48527;BME280;34317;51.660;5.824;2022-12-20T03:31:50;101207.63;;;14.13;59.77
48527;BME280;34317;51.660;5.824;2022-12-20T03:34:17;101206.69;;;14.14;59.49
48527;BME280;34317;51.660;5.824;2022-12-20T03:36:45;101193.34;;;14.14;59.69
48527;BME280;34317;51.660;5.824;2022-12-20T03:39:12;101198.53;;;14.17;59.64
48527;BME280;34317;51.660;5.824;2022-12-20T03:41:40;101206.44;;;14.19;59.54
48527;BME280;34317;51.660;5.824;2022-12-20T03:44:08;101193.03;;;14.20;59.43
48527;BME280;34317;51.660;5.824;2022-12-20T03:46:36;101196.47;;;14.23;59.48
48527;BME280;34317;51.660;5.824;2022-12-20T03:49:04;101189.25;;;14.25;59.31
48527;BME280;34317;51.660;5.824;2022-12-20T03:51:33;101199.72;;;14.28;59.48
48527;BME280;34317;51.660;5.824;2022-12-20T03:54:01;101195.97;;;14.32;59.47
48527;BME280;34317;51.660;5.824;2022-12-20T03:56:46;101195.78;;;14.35;59.44
48527;BME280;34317;51.660;5.824;2022-12-20T03:59:15;101205.44;;;14.37;59.58
48527;BME280;34317;51.660;5.824;2022-12-20T04:01:42;101201.72;;;14.40;59.39
48527;BME280;34317;51.660;5.824;2022-12-20T04:04:13;101200.63;;;14.44;59.20
48527;BME280;34317;51.660;5.824;2022-12-20T04:06:41;101206.72;;;14.46;59.10
48527;BME280;34317;51.660;5.824;2022-12-20T04:09:08;101207.41;;;14.50;59.27
48527;BME280;34317;51.660;5.824;2022-12-20T04:11:44;101209.84;;;14.54;59.14
48527;BME280;34317;51.660;5.824;2022-12-20T04:14:14;101193.69;;;14.57;59.13
48527;BME280;34317;51.660;5.824;2022-12-20T04:16:42;101192.56;;;14.62;59.07
48527;BME280;34317;51.660;5.824;2022-12-20T04:19:10;101189.66;;;14.66;58.90
48527;BME280;34317;51.660;5.824;2022-12-20T04:21:44;101182.34;;;14.70;58.89
48527;BME280;34317;51.660;5.824;2022-12-20T04:24:12;101191.88;;;14.74;58.71
48527;BME280;34317;51.660;5.824;2022-12-20T04:26:47;101180.16;;;14.76;58.74
48527;BME280;34317;51.660;5.824;2022-12-20T04:29:16;101180.84;;;14.80;58.70
48527;BME280;34317;51.660;5.824;2022-12-20T04:31:44;101182.38;;;14.84;58.72
48527;BME280;34317;51.660;5.824;2022-12-20T04:34:12;101183.06;;;14.88;58.53
48527;BME280;34317;51.660;5.824;2022-12-20T04:36:39;101173.28;;;14.88;58.42
48527;BME280;34317;51.660;5.824;2022-12-20T04:39:12;101178.44;;;14.91;58.33
48527;BME280;34317;51.660;5.824;2022-12-20T04:42:01;101173.84;;;14.93;58.38
48527;BME280;34317;51.660;5.824;2022-12-20T04:44:28;101166.63;;;14.95;58.35
48527;BME280;34317;51.660;5.824;2022-12-20T04:46:55;101167.44;;;14.97;58.30
48527;BME280;34317;51.660;5.824;2022-12-20T04:49:24;101172.56;;;15.01;58.20
48527;BME280;34317;51.660;5.824;2022-12-20T04:51:52;101168.97;;;15.02;58.06
48527;BME280;34317;51.660;5.824;2022-12-20T04:54:20;101175.06;;;15.04;58.00
48527;BME280;34317;51.660;5.824;2022-12-20T04:56:56;101175.81;;;15.06;58.12
48527;BME280;34317;51.660;5.824;2022-12-20T04:59:23;101172.19;;;15.07;57.84
48527;BME280;34317;51.660;5.824;2022-12-20T05:01:53;101165.00;;;15.09;58.10
48527;BME280;34317;51.660;5.824;2022-12-20T05:04:36;101166.69;;;15.10;57.88
48527;BME280;34317;51.660;5.824;2022-12-20T05:07:04;101170.13;;;15.12;58.07
48527;BME280;34317;51.660;5.824;2022-12-20T05:09:33;101162.88;;;15.14;57.74
48527;BME280;34317;51.660;5.824;2022-12-20T05:12:00;101159.28;;;15.15;57.84
48527;BME280;34317;51.660;5.824;2022-12-20T05:14:28;101162.88;;;15.14;57.87
48527;BME280;34317;51.660;5.824;2022-12-20T05:16:55;101163.84;;;15.13;57.76
48527;BME280;34317;51.660;5.824;2022-12-20T05:19:23;101159.28;;;15.15;57.73
48527;BME280;34317;51.660;5.824;2022-12-20T05:21:50;101153.94;;;15.15;57.84
48527;BME280;34317;51.660;5.824;2022-12-20T05:24:40;101153.94;;;15.15;57.86
48527;BME280;34317;51.660;5.824;2022-12-20T05:27:30;101146.88;;;15.14;57.81
48527;BME280;34317;51.660;5.824;2022-12-20T05:29:57;101143.28;;;15.15;57.73
48527;BME280;34317;51.660;5.824;2022-12-20T05:32:26;101132.59;;;15.15;57.95
48527;BME280;34317;51.660;5.824;2022-12-20T05:34:54;101132.59;;;15.15;57.98
48527;BME280;34317;51.660;5.824;2022-12-20T05:37:21;101136.03;;;15.17;57.77
48527;BME280;34317;51.660;5.824;2022-12-20T05:39:48;101136.03;;;15.17;57.85
48527;BME280;34317;51.660;5.824;2022-12-20T05:42:20;101135.94;;;15.18;57.71
48527;BME280;34317;51.660;5.824;2022-12-20T05:44:50;101130.69;;;15.17;57.57
48527;BME280;34317;51.660;5.824;2022-12-20T05:47:19;101132.41;;;15.18;57.91
48527;BME280;34317;51.660;5.824;2022-12-20T05:49:52;101123.63;;;15.16;57.96
48527;BME280;34317;51.660;5.824;2022-12-20T05:52:19;101117.53;;;15.14;57.79
48527;BME280;34317;51.660;5.824;2022-12-20T05:54:46;101123.84;;;15.13;57.88
48527;BME280;34317;51.660;5.824;2022-12-20T05:57:16;101125.75;;;15.11;57.91
48527;BME280;34317;51.660;5.824;2022-12-20T05:59:45;101130.19;;;15.10;57.97
48527;BME280;34317;51.660;5.824;2022-12-20T06:02:15;101125.75;;;15.11;57.92
48527;BME280;34317;51.660;5.824;2022-12-20T06:04:44;101126.59;;;15.11;58.05
48527;BME280;34317;51.660;5.824;2022-12-20T06:07:20;101124.00;;;15.10;57.93
48527;BME280;34317;51.660;5.824;2022-12-20T06:09:51;101124.00;;;15.10;57.98
48527;BME280;34317;51.660;5.824;2022-12-20T06:12:23;101118.66;;;15.10;57.89
48527;BME280;34317;51.660;5.824;2022-12-20T06:14:51;101116.97;;;15.09;57.97
48527;BME280;34317;51.660;5.824;2022-12-20T06:17:18;101096.56;;;15.08;57.88
48527;BME280;34317;51.660;5.824;2022-12-20T06:19:47;101097.50;;;15.07;57.84
48527;BME280;34317;51.660;5.824;2022-12-20T06:22:16;101094.94;;;15.05;57.73
48527;BME280;34317;51.660;5.824;2022-12-20T06:24:50;101087.88;;;15.04;57.81
48527;BME280;34317;51.660;5.824;2022-12-20T06:27:21;101076.38;;;15.04;57.80
48527;BME280;34317;51.660;5.824;2022-12-20T06:29:58;101078.25;;;15.02;57.61
48527;BME280;34317;51.660;5.824;2022-12-20T06:32:31;101078.44;;;14.98;57.86
48527;BME280;34317;51.660;5.824;2022-12-20T06:34:59;101073.28;;;14.95;57.76
48527;BME280;34317;51.660;5.824;2022-12-20T06:37:27;101084.16;;;14.92;57.77
48527;BME280;34317;51.660;5.824;2022-12-20T06:39:54;101080.88;;;14.87;57.80
48527;BME280;34317;51.660;5.824;2022-12-20T06:42:22;101090.88;;;14.84;57.74
48527;BME280;34317;51.660;5.824;2022-12-20T06:44:49;101081.25;;;14.81;57.78
48527;BME280;34317;51.660;5.824;2022-12-20T06:47:16;101088.50;;;14.79;57.64
48527;BME280;34317;51.660;5.824;2022-12-20T06:49:44;101084.28;;;14.75;57.60
48527;BME280;34317;51.660;5.824;2022-12-20T06:52:19;101088.81;;;14.73;57.56
48527;BME280;34317;51.660;5.824;2022-12-20T06:54:49;101087.28;;;14.69;57.68
48527;BME280;34317;51.660;5.824;2022-12-20T06:57:16;101082.16;;;14.66;57.66
48527;BME280;34317;51.660;5.824;2022-12-20T06:59:46;101084.91;;;14.64;57.68
48527;BME280;34317;51.660;5.824;2022-12-20T07:02:13;101071.66;;;14.63;57.63
48527;BME280;34317;51.660;5.824;2022-12-20T07:04:41;101069.16;;;14.59;57.51
48527;BME280;34317;51.660;5.824;2022-12-20T07:07:08;101070.13;;;14.58;57.73
48527;BME280;34317;51.660;5.824;2022-12-20T07:09:35;101073.72;;;14.57;57.70
48527;BME280;34317;51.660;5.824;2022-12-20T07:12:03;101081.72;;;14.57;57.59
48527;BME280;34317;51.660;5.824;2022-12-20T07:14:31;101068.41;;;14.57;57.60
48527;BME280;34317;51.660;5.824;2022-12-20T07:16:58;101076.41;;;14.57;57.48
48527;BME280;34317;51.660;5.824;2022-12-20T07:19:25;101078.13;;;14.58;57.42
48527;BME280;34317;51.660;5.824;2022-12-20T07:21:52;101075.47;;;14.58;57.42
48527;BME280;34317;51.660;5.824;2022-12-20T07:24:19;101080.78;;;14.58;57.45
48527;BME280;34317;51.660;5.824;2022-12-20T07:26:47;101074.41;;;14.61;57.25
48527;BME280;34317;51.660;5.824;2022-12-20T07:29:14;101069.94;;;14.62;57.35
48527;BME280;34317;51.660;5.824;2022-12-20T07:31:42;101073.41;;;14.64;57.36
48527;BME280;34317;51.660;5.824;2022-12-20T07:34:10;101074.34;;;14.63;57.44
48527;BME280;34317;51.660;5.824;2022-12-20T07:36:37;101071.50;;;14.66;57.11
48527;BME280;34317;51.660;5.824;2022-12-20T07:39:04;101076.72;;;14.67;57.09
48527;BME280;34317;51.660;5.824;2022-12-20T07:41:31;101076.63;;;14.69;57.03
48527;BME280;34317;51.660;5.824;2022-12-20T07:43:59;101075.69;;;14.70;57.00
48527;BME280;34317;51.660;5.824;2022-12-20T07:46:26;101087.13;;;14.72;56.86
48527;BME280;34317;51.660;5.824;2022-12-20T07:48:54;101079.03;;;14.73;57.01
48527;BME280;34317;51.660;5.824;2022-12-20T07:51:27;101077.22;;;14.74;56.92
48527;BME280;34317;51.660;5.824;2022-12-20T07:54:26;101086.97;;;14.75;57.00
48527;BME280;34317;51.660;5.824;2022-12-20T07:56:57;101079.72;;;14.77;56.84
48527;BME280;34317;51.660;5.824;2022-12-20T07:59:35;101089.34;;;14.79;56.86
48527;BME280;34317;51.660;5.824;2022-12-20T08:02:05;101090.19;;;14.80;56.72
48527;BME280;34317;51.660;5.824;2022-12-20T08:04:34;101086.59;;;14.81;56.81
48527;BME280;34317;51.660;5.824;2022-12-20T08:07:01;101088.28;;;14.82;56.62
48527;BME280;34317;51.660;5.824;2022-12-20T08:09:34;101090.03;;;14.83;56.43
48527;BME280;34317;51.660;5.824;2022-12-20T08:12:03;101086.38;;;14.84;56.70
48527;BME280;34317;51.660;5.824;2022-12-20T08:14:30;101096.03;;;14.87;56.60
48527;BME280;34317;51.660;5.824;2022-12-20T08:16:57;101100.41;;;14.88;56.66
48527;BME280;34317;51.660;5.824;2022-12-20T08:19:24;101104.81;;;14.89;56.62
48527;BME280;34317;51.660;5.824;2022-12-20T08:21:58;101103.75;;;14.91;56.56
48527;BME280;34317;51.660;5.824;2022-12-20T08:24:25;101100.16;;;14.92;56.44
48527;BME280;34317;51.660;5.824;2022-12-20T08:26:52;101098.25;;;14.94;56.37
48527;BME280;34317;51.660;5.824;2022-12-20T08:29:19;101094.63;;;14.95;56.51
48527;BME280;34317;51.660;5.824;2022-12-20T08:31:47;101101.69;;;14.96;56.59
48527;BME280;34317;51.660;5.824;2022-12-20T08:34:17;101101.69;;;14.96;56.60
48527;BME280;34317;51.660;5.824;2022-12-20T08:36:44;101098.06;;;14.97;56.60
48527;BME280;34317;51.660;5.824;2022-12-20T08:39:11;101098.06;;;14.97;56.65
48527;BME280;34317;51.660;5.824;2022-12-20T08:41:39;101091.00;;;14.96;56.62
48527;BME280;34317;51.660;5.824;2022-12-20T08:44:06;101096.34;;;14.96;56.79
48527;BME280;34317;51.660;5.824;2022-12-20T08:46:33;101090.16;;;14.96;56.81
48527;BME280;34317;51.660;5.824;2022-12-20T08:49:00;101102.72;;;14.94;57.02
48527;BME280;34317;51.660;5.824;2022-12-20T08:51:27;101096.50;;;14.93;57.05
48527;BME280;34317;51.660;5.824;2022-12-20T08:53:55;101095.75;;;14.91;57.19
48527;BME280;34317;51.660;5.824;2022-12-20T08:56:22;101094.97;;;14.89;57.27
48527;BME280;34317;51.660;5.824;2022-12-20T08:58:50;101086.22;;;14.87;57.38
48527;BME280;34317;51.660;5.824;2022-12-20T09:01:19;101088.13;;;14.85;57.72
48527;BME280;34317;51.660;5.824;2022-12-20T09:03:48;101088.13;;;14.85;57.76
48527;BME280;34317;51.660;5.824;2022-12-20T09:06:20;101093.44;;;14.85;57.66
48527;BME280;34317;51.660;5.824;2022-12-20T09:08:48;101089.16;;;14.83;57.70
48527;BME280;34317;51.660;5.824;2022-12-20T09:11:23;101091.16;;;14.79;57.91
48527;BME280;34317;51.660;5.824;2022-12-20T09:13:53;101085.06;;;14.77;57.90
48527;BME280;34317;51.660;5.824;2022-12-20T09:16:23;101081.63;;;14.75;58.03
48527;BME280;34317;51.660;5.824;2022-12-20T09:18:53;101087.13;;;14.72;58.13
48527;BME280;34317;51.660;5.824;2022-12-20T09:21:30;101089.03;;;14.70;58.20
48527;BME280;34317;51.660;5.824;2022-12-20T09:23:57;101083.88;;;14.67;58.25
48527;BME280;34317;51.660;5.824;2022-12-20T09:26:25;101075.09;;;14.65;58.42
48527;BME280;34317;51.660;5.824;2022-12-20T09:28:52;101077.84;;;14.63;58.48
48527;BME280;34317;51.660;5.824;2022-12-20T09:31:22;101077.84;;;14.63;58.39
48527;BME280;34317;51.660;5.824;2022-12-20T09:33:54;101076.16;;;14.62;58.44
48527;BME280;34317;51.660;5.824;2022-12-20T09:36:25;101071.66;;;14.63;58.73
48527;BME280;34317;51.660;5.824;2022-12-20T09:38:53;101074.41;;;14.61;58.56
48527;BME280;34317;51.660;5.824;2022-12-20T09:41:40;101077.16;;;14.59;58.67
48527;BME280;34317;51.660;5.824;2022-12-20T09:44:19;101077.16;;;14.59;58.59
48527;BME280;34317;51.660;5.824;2022-12-20T09:46:53;101074.50;;;14.59;58.74
48527;BME280;34317;51.660;5.824;2022-12-20T09:49:26;101071.84;;;14.59;58.90
48527;BME280;34317;51.660;5.824;2022-12-20T09:52:08;101069.94;;;14.62;58.83
48527;BME280;34317;51.660;5.824;2022-12-20T10:00:18;101065.97;;;14.69;59.07
48527;BME280;34317;51.660;5.824;2022-12-20T10:02:46;101065.88;;;14.70;59.13
48527;BME280;34317;51.660;5.824;2022-12-20T10:05:53;101072.84;;;14.73;59.24
48527;BME280;34317;51.660;5.824;2022-12-20T10:08:43;101063.72;;;14.77;59.17
48527;BME280;34317;51.660;5.824;2022-12-20T10:17:04;101049.06;;;14.84;59.11
48527;BME280;34317;51.660;5.824;2022-12-20T10:22:41;101047.19;;;14.86;59.06
48527;BME280;34317;51.660;5.824;2022-12-20T10:25:21;101045.28;;;14.88;58.94
48527;BME280;34317;51.660;5.824;2022-12-20T10:27:52;101046.97;;;14.89;59.11
48527;BME280;34317;51.660;5.824;2022-12-20T10:30:24;101040.63;;;14.92;59.03
48527;BME280;34317;51.660;5.824;2022-12-20T10:32:54;101037.00;;;14.93;59.04
48527;BME280;34317;51.660;5.824;2022-12-20T10:35:33;101041.28;;;14.95;58.96
48527;BME280;34317;51.660;5.824;2022-12-20T10:38:06;101027.00;;;14.96;58.85
48527;BME280;34317;51.660;5.824;2022-12-20T10:43:24;101035.38;;;15.05;58.96
48527;BME280;34317;51.660;5.824;2022-12-20T10:46:07;101025.38;;;15.08;58.98
48527;BME280;34317;51.660;5.824;2022-12-20T10:48:37;101026.91;;;15.12;59.02
48527;BME280;34317;51.660;5.824;2022-12-20T10:53:59;101030.84;;;15.21;58.80
48527;BME280;34317;51.660;5.824;2022-12-20T10:56:33;101028.94;;;15.23;58.91
48527;BME280;34317;51.660;5.824;2022-12-20T11:01:43;101029.50;;;15.28;58.86
48527;BME280;34317;51.660;5.824;2022-12-20T11:06:51;101033.03;;;15.29;58.74
48527;BME280;34317;51.660;5.824;2022-12-20T11:09:33;101023.41;;;15.26;58.98
48527;BME280;34317;51.660;5.824;2022-12-20T11:12:11;101025.31;;;15.24;59.01
48527;BME280;34317;51.660;5.824;2022-12-20T11:14:40;101020.16;;;15.21;59.09
48527;BME280;34317;51.660;5.824;2022-12-20T11:17:23;101026.66;;;15.17;58.95
48527;BME280;34317;51.660;5.824;2022-12-20T11:22:54;101019.03;;;15.11;59.46
48527;BME280;34317;51.660;5.824;2022-12-20T11:28:29;101008.72;;;15.05;59.57
48527;BME280;34317;51.660;5.824;2022-12-20T11:31:39;101017.84;;;15.01;59.80
48527;BME280;34317;51.660;5.824;2022-12-20T11:34:25;101018.81;;;14.99;59.79
48527;BME280;34317;51.660;5.824;2022-12-20T11:39:48;101011.16;;;14.93;59.65
48527;BME280;34317;51.660;5.824;2022-12-20T11:48:40;100999.19;;;14.86;60.09
48527;BME280;34317;51.660;5.824;2022-12-20T11:56:47;100994.03;;;14.83;60.56
48527;BME280;34317;51.660;5.824;2022-12-20T11:59:29;100997.63;;;14.82;60.77
48527;BME280;34317;51.660;5.824;2022-12-20T12:02:43;100990.59;;;14.81;60.70
48527;BME280;34317;51.660;5.824;2022-12-20T12:05:21;100983.53;;;14.80;60.80
48527;BME280;34317;51.660;5.824;2022-12-20T12:07:53;100988.88;;;14.80;60.92
48527;BME280;34317;51.660;5.824;2022-12-20T12:10:24;100988.78;;;14.82;60.95
48527;BME280;34317;51.660;5.824;2022-12-20T12:13:00;100986.03;;;14.83;60.99
48527;BME280;34317;51.660;5.824;2022-12-20T12:15:57;100987.94;;;14.81;61.04
48527;BME280;34317;51.660;5.824;2022-12-20T12:18:29;100982.78;;;14.78;60.96
48527;BME280;34317;51.660;5.824;2022-12-20T12:26:29;100983.75;;;14.77;61.22
48527;BME280;34317;51.660;5.824;2022-12-20T12:29:00;100978.41;;;14.77;61.30
48527;BME280;34317;51.660;5.824;2022-12-20T12:31:33;100982.97;;;14.75;61.61
48527;BME280;34317;51.660;5.824;2022-12-20T12:34:26;100979.34;;;14.76;61.52
48527;BME280;34317;51.660;5.824;2022-12-20T12:37:32;100972.41;;;14.73;61.60
48527;BME280;34317;51.660;5.824;2022-12-20T12:45:50;100971.63;;;14.71;61.75
48527;BME280;34317;51.660;5.824;2022-12-20T12:50:56;100976.84;;;14.73;61.84
48527;BME280;34317;51.660;5.824;2022-12-20T12:53:52;100977.72;;;14.73;61.97
48527;BME280;34317;51.660;5.824;2022-12-20T13:07:41;100974.09;;;14.74;62.24
48527;BME280;34317;51.660;5.824;2022-12-20T13:12:46;100974.00;;;14.76;62.38
48527;BME280;34317;51.660;5.824;2022-12-20T13:17:50;100966.78;;;14.78;62.37
48527;BME280;34317;51.660;5.824;2022-12-20T13:20:27;100967.53;;;14.80;62.46
48527;BME280;34317;51.660;5.824;2022-12-20T13:25:32;100963.16;;;14.79;62.37
48527;BME280;34317;51.660;5.824;2022-12-20T13:30:45;100957.06;;;14.77;62.38
48527;BME280;34317;51.660;5.824;2022-12-20T13:33:43;100963.44;;;14.74;62.41
48527;BME280;34317;51.660;5.824;2022-12-20T13:41:31;100961.72;;;14.73;62.55
48527;BME280;34317;51.660;5.824;2022-12-20T13:44:09;100966.19;;;14.73;62.61
48527;BME280;34317;51.660;5.824;2022-12-20T13:49:25;100964.50;;;14.72;62.66
48527;BME280;34317;51.660;5.824;2022-12-20T13:52:11;100968.09;;;14.71;62.78
48527;BME280;34317;51.660;5.824;2022-12-20T13:54:45;100960.09;;;14.71;62.73
48527;BME280;34317;51.660;5.824;2022-12-20T13:57:15;100964.66;;;14.69;62.75
48527;BME280;34317;51.660;5.824;2022-12-20T13:59:47;100966.56;;;14.67;62.93
48527;BME280;34317;51.660;5.824;2022-12-20T14:02:21;100957.81;;;14.65;62.76
48527;BME280;34317;51.660;5.824;2022-12-20T14:04:58;100966.94;;;14.60;62.42
48527;BME280;34317;51.660;5.824;2022-12-20T14:07:28;100959.88;;;14.59;62.57
48527;BME280;34317;51.660;5.824;2022-12-20T14:09:59;100971.59;;;14.57;62.35
48527;BME280;34317;51.660;5.824;2022-12-20T14:12:28;100969.84;;;14.56;62.91
48527;BME280;34317;51.660;5.824;2022-12-20T14:15:29;100963.84;;;14.52;62.94
48527;BME280;34317;51.660;5.824;2022-12-20T14:18:04;100958.53;;;14.52;62.89
48527;BME280;34317;51.660;5.824;2022-12-20T14:20:34;100962.13;;;14.51;63.04
48527;BME280;34317;51.660;5.824;2022-12-20T14:23:10;100964.88;;;14.50;63.01
48527;BME280;34317;51.660;5.824;2022-12-20T14:25:57;100960.41;;;14.50;62.95
48527;BME280;34317;51.660;5.824;2022-12-20T14:28:29;100964.03;;;14.49;62.92
48527;BME280;34317;51.660;5.824;2022-12-20T14:30:58;100967.63;;;14.48;63.06
48527;BME280;34317;51.660;5.824;2022-12-20T14:33:35;100964.19;;;14.46;63.08
48527;BME280;34317;51.660;5.824;2022-12-20T14:36:19;100957.16;;;14.45;63.13
48527;BME280;34317;51.660;5.824;2022-12-20T14:38:51;100968.69;;;14.46;63.21
48527;BME280;34317;51.660;5.824;2022-12-20T14:41:39;100960.78;;;14.44;63.18
48527;BME280;34317;51.660;5.824;2022-12-20T14:46:34;100966.31;;;14.41;63.14
48527;BME280;34317;51.660;5.824;2022-12-20T14:49:16;100972.56;;;14.40;63.21
48527;BME280;34317;51.660;5.824;2022-12-20T14:51:45;100971.81;;;14.38;63.11
48527;BME280;34317;51.660;5.824;2022-12-20T14:54:24;100955.81;;;14.38;63.21
48527;BME280;34317;51.660;5.824;2022-12-20T14:57:43;100963.13;;;14.34;63.17
48527;BME280;34317;51.660;5.824;2022-12-20T15:13:27;100933.13;;;14.31;63.14
48527;BME280;34317;51.660;5.824;2022-12-20T15:15:58;100931.44;;;14.30;63.43
48527;BME280;34317;51.660;5.824;2022-12-20T15:18:26;100927.97;;;14.28;63.23